Pagrindinis puslapis
METAR-TAF:

METAR-TAF

Oro uostai :

Bornmutas, Anglija

platuma: 50-47N, ilguma: 001-50W, Aukštis: 11 m

Dabartinis oras

Ataskaita buvo paskelbta 32 minutes, ne 16:50 UTC
Vėjas 7 kt iš Pietų
Temperatūra 19°C
Drėgmė 56%
Slėgis 1011 hPa
Matomumas 10 km arba daugiau
Mažai debesys ne aukštis 3700 ft

METAR: EGHH 171650Z 17007KT 9999 FEW037 19/10 Q1011

Laikas: 18:22 (17:22 UTC)

Prognozė

Ataskaita buvo paskelbta 3 valandos ir 16 minutes, ne 14:06 UTC
Prognozė galioja nuo 17 metu 15 UTC su 17 metu 24 UTC
Vėjas 11 kt iš Pietų
Matomumas 10 km arba daugiau
Išsisklaidę debesys ne aukštis 3500 ft

TAF: EGHH 171406Z 1715/1724 19011KT 9999 SCT035

Orai ataskaitas ir orų prognozės (METAR, TAF).

turimą stotys yra geltonos ir raudonos taškus žemėlapyje.

Perkelti pele per norėdami pamatyti stoties vardą.

Tada spustelėkite, norėdami matyti oro stebėjimo ir prognozės.

Norėdami pakeisti žemėlapį: spustelėkite ant žalios mygtukų su juodo kryžiaus žemyn,; žalią mygtuką su brūkšneliu, jei norite nutolinti; arba žalių rodyklių gretimoms žemėlapius.


METAR-TAF: